Time;durP1;ratioP1;P1;durP2;ratioP2;P2;SDS_P1;SDS_P2;PMS_P1;PMS_P2;Temp;Humidity;BMP_temperature;BMP_pressure;BME280_temperature;BME280_humidity;BME280_pressure;Samples;Min_cycle;Max_cycle;Signal;HPM_P1;HPM_P2
2022/08/23 00:02:11;;;;;;;14.77;4.43;;;;;;;22.19;53.38;100392.33;1661205;86;21025;-65
2022/08/23 00:04:40;;;;;;;9.27;4.10;;;;;;;22.17;53.72;100401.09;1661149;86;21109;-56
2022/08/23 00:07:11;;;;;;;12.23;4.53;;;;;;;22.15;53.88;100401.86;1661354;86;21074;-56
2022/08/23 00:09:38;;;;;;;11.83;4.23;;;;;;;22.12;54.00;100404.45;1690626;84;21023;-56
2022/08/23 00:12:14;;;;;;;9.53;3.93;;;;;;;22.06;54.24;100401.52;1690062;84;21075;-57
2022/08/23 00:14:48;;;;;;;12.90;5.30;;;;;;;22.03;54.25;100406.80;1690269;84;21064;-56
2022/08/23 00:17:17;;;;;;;14.23;4.47;;;;;;;22.00;54.59;100408.62;1690492;84;21099;-56
2022/08/23 00:19:44;;;;;;;12.83;4.13;;;;;;;21.98;54.75;100414.73;1690603;84;21051;-58
2022/08/23 00:22:11;;;;;;;9.43;4.03;;;;;;;22.84;52.62;100421.59;1690565;84;21077;-55
2022/08/23 00:24:40;;;;;;;6.93;4.47;;;;;;;21.99;54.30;100421.63;1690403;84;21022;-56
2022/08/23 00:27:16;;;;;;;12.60;4.23;;;;;;;21.94;55.08;100426.13;1690458;84;21159;-56
2022/08/23 00:29:52;;;;;;;9.63;4.20;;;;;;;21.92;55.62;100430.34;1690135;84;21094;-56
2022/08/23 00:32:23;;;;;;;8.77;3.90;;;;;;;21.97;55.42;100436.20;1689345;84;21094;-56
2022/08/23 00:34:51;;;;;;;12.03;4.35;;;;;;;21.86;56.36;100426.86;1689852;84;20983;-56
2022/08/23 00:37:18;;;;;;;12.67;4.60;;;;;;;21.80;56.83;100437.15;1690546;84;22689;-57
2022/08/23 00:39:46;;;;;;;9.00;4.50;;;;;;;21.78;56.95;100438.44;1690082;84;20992;-56
2022/08/23 00:48:14;;;;;;;13.83;4.17;;;;;;;21.72;57.28;100439.47;1690638;84;21065;-55
2022/08/23 00:50:58;;;;;;;10.70;4.27;;;;;;;21.68;57.57;100448.98;1689923;84;21373;-56
2022/08/23 00:53:30;;;;;;;10.07;4.47;;;;;;;21.67;57.88;100448.69;1690164;84;21544;-56
2022/08/23 00:56:06;;;;;;;9.07;4.07;;;;;;;21.65;58.17;100456.91;1666573;84;20940;-56
2022/08/23 00:58:31;;;;;;;10.03;3.67;;;;;;;21.62;58.87;100450.25;1689527;84;21584;-57
2022/08/23 01:01:00;;;;;;;10.67;4.67;;;;;;;21.59;59.10;100456.58;1690600;84;21002;-60
2022/08/23 01:03:29;;;;;;;11.90;4.33;;;;;;;21.56;59.47;100462.41;1690919;84;21479;-56
2022/08/23 01:06:16;;;;;;;7.93;3.70;;;;;;;21.53;59.69;100460.25;1693219;84;21027;-66
2022/08/23 01:08:50;;;;;;;9.27;4.60;;;;;;;21.47;60.16;100465.22;1693754;84;21034;-64
2022/08/23 01:11:22;;;;;;;8.70;4.23;;;;;;;21.43;60.42;100464.12;1692886;84;21344;-55
2022/08/23 01:13:57;;;;;;;8.83;3.53;;;;;;;21.38;61.23;100473.63;1693173;84;20996;-57
2022/08/23 01:16:35;;;;;;;9.20;3.80;;;;;;;21.35;61.54;100474.12;1693929;84;21166;-55
2022/08/23 01:19:03;;;;;;;10.50;5.10;;;;;;;21.31;62.03;100474.84;1693704;84;21093;-65
2022/08/23 01:21:39;;;;;;;9.40;4.50;;;;;;;21.27;62.28;100477.72;1693221;84;21082;-57
2022/08/23 01:24:06;;;;;;;11.57;4.13;;;;;;;21.26;62.70;100488.05;1693242;84;21011;-56
2022/08/23 01:26:34;;;;;;;10.00;4.33;;;;;;;21.23;62.71;100487.22;1693454;84;21097;-62
2022/08/23 01:29:04;;;;;;;12.43;4.27;;;;;;;21.19;62.72;100490.09;1694002;84;22372;-61
2022/08/23 01:31:33;;;;;;;6.90;4.20;;;;;;;21.17;62.81;100488.19;1693845;84;21662;-56
2022/08/23 01:34:05;;;;;;;12.83;4.30;;;;;;;21.15;62.99;100485.80;1693653;84;20983;-57
2022/08/23 01:36:33;;;;;;;11.67;4.60;;;;;;;21.12;63.17;100488.94;1693282;84;21066;-56
2022/08/23 01:39:02;;;;;;;11.70;4.30;;;;;;;21.08;63.63;100493.13;1693568;84;21849;-57
2022/08/23 01:41:30;;;;;;;10.40;4.20;;;;;;;21.07;64.04;100494.98;1673713;84;21375;-56
2022/08/23 01:43:57;;;;;;;8.60;4.40;;;;;;;21.05;64.00;100498.39;1693967;84;20952;-56
2022/08/23 01:46:26;;;;;;;8.03;3.80;;;;;;;21.04;64.28;100497.33;1693562;84;21027;-65
2022/08/23 01:48:54;;;;;;;12.30;4.03;;;;;;;21.02;64.44;100501.53;1693535;84;21880;-57
2022/08/23 01:51:23;;;;;;;8.73;4.33;;;;;;;21.01;64.52;100507.09;1673529;84;21141;-56
2022/08/23 01:53:50;;;;;;;9.80;4.03;;;;;;;21.01;64.71;100507.09;1693836;84;22503;-56
2022/08/23 01:56:21;;;;;;;7.17;4.00;;;;;;;21.00;65.02;100512.92;1693247;84;21019;-57
2022/08/23 01:58:49;;;;;;;10.17;4.23;;;;;;;20.96;65.21;100502.53;1693549;84;21388;-66
2022/08/23 02:01:17;;;;;;;7.97;4.47;;;;;;;20.93;66.10;100508.31;1693101;84;21010;-57
2022/08/23 02:03:45;;;;;;;6.30;3.80;;;;;;;20.86;66.62;100505.04;1693678;84;21034;-56
2022/08/23 02:06:12;;;;;;;10.13;4.07;;;;;;;20.84;67.58;100509.27;1691012;84;21218;-60
2022/08/23 02:11:28;;;;;;;13.80;3.77;;;;;;;20.75;69.28;100512.05;1690922;84;21050;-55
2022/08/23 02:13:57;;;;;;;6.13;3.70;;;;;;;20.74;70.25;100517.59;1690840;84;21018;-55
2022/08/23 02:16:35;;;;;;;8.10;4.15;;;;;;;20.72;71.08;100519.17;1690137;84;21006;-55
2022/08/23 02:19:10;;;;;;;9.33;4.37;;;;;;;20.68;71.94;100519.88;1666486;84;21274;-56
2022/08/23 02:21:38;;;;;;;8.83;4.20;;;;;;;20.65;72.39;100522.52;1690731;84;21556;-56
2022/08/23 02:24:11;;;;;;;11.53;3.80;;;;;;;20.65;73.34;100524.64;1690304;84;21071;-56
2022/08/23 02:26:43;;;;;;;11.27;3.83;;;;;;;20.64;73.90;100532.81;1690588;84;21653;-54
2022/08/23 02:29:13;;;;;;;15.90;4.03;;;;;;;20.61;74.95;100534.11;1690798;84;21639;-57
2022/08/23 02:31:42;;;;;;;8.97;4.57;;;;;;;20.56;76.05;100534.02;1667984;84;21239;-65
2022/08/23 02:34:11;;;;;;;11.27;3.50;;;;;;;20.52;77.89;100541.38;1689893;84;21165;-59
2022/08/23 02:36:39;;;;;;;9.00;3.67;;;;;;;20.49;79.41;100540.00;1690730;84;21431;-55
2022/08/23 02:39:08;;;;;;;8.37;3.70;;;;;;;20.50;79.79;100542.95;1690893;83;21004;-55
2022/08/23 02:41:37;;;;;;;10.10;4.10;;;;;;;20.48;80.44;100547.64;1691214;84;21027;-55
2022/08/23 02:44:04;;;;;;;8.03;3.83;;;;;;;20.48;80.47;100548.97;1690031;84;21770;-62
2022/08/23 02:46:33;;;;;;;8.97;3.63;;;;;;;20.48;80.27;100546.31;1691008;84;21280;-55
2022/08/23 02:49:00;;;;;;;8.60;3.57;;;;;;;20.52;79.76;100555.41;1691255;84;21016;-55
2022/08/23 02:51:28;;;;;;;7.50;4.10;;;;;;;20.52;79.65;100551.44;1691334;84;21071;-56
2022/08/23 02:53:55;;;;;;;10.73;4.30;;;;;;;20.54;80.72;100555.98;1691223;84;21566;-65
2022/08/23 02:56:23;;;;;;;9.10;4.07;;;;;;;20.44;83.24;100559.76;1690711;84;21776;-55
2022/08/23 02:58:51;;;;;;;9.27;4.77;;;;;;;20.42;84.57;100553.92;1691079;84;21474;-55
2022/08/23 03:01:27;;;;;;;9.17;4.53;;;;;;;20.40;85.96;100553.34;1691103;84;21106;-56
2022/08/23 03:03:56;;;;;;;11.17;5.47;;;;;;;20.39;86.95;100545.92;1690988;84;21074;-66
2022/08/23 03:06:24;;;;;;;11.87;4.57;;;;;;;20.39;87.51;100553.07;1690812;84;21133;-55
2022/08/23 03:08:51;;;;;;;8.27;3.43;;;;;;;20.40;87.73;100550.70;1691441;84;21270;-56
2022/08/23 03:11:23;;;;;;;10.37;4.23;;;;;;;20.41;88.74;100557.06;1691220;84;20947;-55
2022/08/23 03:13:51;;;;;;;9.57;4.10;;;;;;;20.41;89.48;100553.09;1691351;84;20983;-56
2022/08/23 03:16:21;;;;;;;7.57;3.50;;;;;;;20.44;89.84;100551.81;1690604;84;21066;-56
2022/08/23 03:18:48;;;;;;;6.77;3.50;;;;;;;20.48;89.73;100548.17;1691390;84;21118;-55
2022/08/23 03:21:15;;;;;;;5.83;4.10;;;;;;;20.51;89.36;100550.38;1691336;84;21552;-55
2022/08/23 03:23:43;;;;;;;8.90;4.00;;;;;;;20.55;89.57;100554.94;1691059;84;21028;-55
2022/08/23 03:26:11;;;;;;;6.60;4.13;;;;;;;20.61;89.19;100544.71;1690790;84;20964;-65
2022/08/23 03:28:39;;;;;;;10.20;3.60;;;;;;;20.68;89.13;100556.44;1691349;84;21138;-55
2022/08/23 03:31:08;;;;;;;11.00;3.90;;;;;;;20.74;89.23;100553.36;1691360;84;21031;-55
2022/08/23 03:33:37;;;;;;;8.93;4.10;;;;;;;20.83;88.46;100546.59;1690276;84;21391;-55
2022/08/23 03:36:06;;;;;;;6.77;3.67;;;;;;;21.08;85.96;100554.09;1690966;84;21066;-66
2022/08/23 03:38:34;;;;;;;10.17;3.97;;;;;;;21.68;80.43;100555.11;1691093;84;21093;-55
2022/08/23 03:41:03;;;;;;;7.10;3.83;;;;;;;22.38;71.63;100555.51;1691229;84;21269;-55
2022/08/23 03:43:31;;;;;;;7.00;3.63;;;;;;;23.05;65.14;100560.23;1691109;84;21573;-56
2022/08/23 03:46:00;;;;;;;9.80;4.03;;;;;;;23.67;60.55;100559.16;1690762;84;21159;-65
2022/08/23 03:48:27;;;;;;;7.30;3.83;;;;;;;24.22;56.75;100564.30;1689791;84;20991;-56
2022/08/23 03:50:54;;;;;;;9.90;3.47;;;;;;;24.65;54.60;100566.16;1690752;84;21090;-56
2022/08/23 03:53:22;;;;;;;10.30;3.67;;;;;;;25.11;52.21;100564.75;1690856;84;21583;-55
2022/08/23 03:55:51;;;;;;;9.10;4.47;;;;;;;25.51;50.43;100571.00;1667689;84;20983;-65
2022/08/23 03:58:20;;;;;;;7.17;3.30;;;;;;;25.84;48.87;100567.64;1689889;84;48592;-64
2022/08/23 04:00:49;;;;;;;6.63;3.23;;;;;;;26.17;47.21;100573.27;1690703;84;21018;-56
2022/08/23 04:03:16;;;;;;;5.37;3.50;;;;;;;26.46;46.15;100571.99;1690884;84;21025;-55
2022/08/23 04:05:48;;;;;;;7.57;3.60;;;;;;;26.79;45.31;100573.02;1683218;84;20955;-66
2022/08/23 04:08:17;;;;;;;9.57;4.00;;;;;;;27.11;44.28;100575.63;1683856;84;21574;-64
2022/08/23 04:10:45;;;;;;;7.30;4.10;;;;;;;27.41;43.50;100577.14;1664445;86;21169;-55
2022/08/23 04:13:13;;;;;;;8.40;3.70;;;;;;;27.74;42.90;100578.58;1664527;85;21641;-55
2022/08/23 04:15:42;;;;;;;7.55;4.15;;;;;;;27.96;42.08;100582.84;1664105;86;20916;-58
2022/08/23 04:18:10;;;;;;;8.98;4.60;;;;;;;28.19;41.09;100585.16;1664663;86;21103;-56
2022/08/23 04:20:37;;;;;;;7.33;4.42;;;;;;;28.39;40.55;100592.64;1663725;85;21295;-56
2022/08/23 04:23:05;;;;;;;9.43;4.00;;;;;;;28.56;40.03;100595.03;1664433;86;22111;-55
2022/08/23 04:25:34;;;;;;;8.55;4.53;;;;;;;28.84;39.69;100590.48;1664254;85;20960;-65
2022/08/23 04:28:03;;;;;;;10.75;4.00;;;;;;;29.16;38.91;100596.08;1664210;86;21037;-55
2022/08/23 04:30:31;;;;;;;8.60;3.90;;;;;;;29.36;38.40;100597.02;1664275;86;21004;-66
2022/08/23 04:32:58;;;;;;;6.78;3.70;;;;;;;29.55;37.77;100608.98;1664670;86;22006;-56
2022/08/23 04:35:26;;;;;;;11.95;4.53;;;;;;;29.71;37.25;100597.38;1675581;85;21576;-55
2022/08/23 04:37:53;;;;;;;5.40;3.60;;;;;;;29.80;36.77;100605.74;1663507;86;20893;-57
2022/08/23 04:43:07;;;;;;;6.25;3.60;;;;;;;30.17;36.34;100593.09;1664438;85;21064;-55
2022/08/23 04:45:39;;;;;;;6.70;4.50;;;;;;;30.17;36.34;100593.09;1663637;86;21576;-57
2022/08/23 04:48:08;;;;;;;9.55;3.87;;;;;;;30.23;35.76;100597.26;1664049;85;21281;-58
2022/08/23 04:50:38;;;;;;;7.37;4.25;;;;;;;30.38;35.94;100600.65;1664401;86;21971;-56
2022/08/23 04:53:16;;;;;;;6.90;4.42;;;;;;;30.56;35.75;100615.79;1664053;85;21130;-60
2022/08/23 04:55:45;;;;;;;11.25;4.42;;;;;;;30.85;35.05;100618.58;1664976;85;21023;-56
2022/08/23 04:58:13;;;;;;;5.92;3.92;;;;;;;30.86;34.68;100611.53;1663740;85;21463;-56
2022/08/23 05:00:42;;;;;;;8.48;4.20;;;;;;;30.88;34.81;100617.97;1664626;85;21794;-56
2022/08/23 05:03:10;;;;;;;7.58;4.10;;;;;;;30.94;34.60;100617.50;1664176;86;20956;-60
2022/08/23 05:05:37;;;;;;;8.43;4.10;;;;;;;31.04;34.85;100611.61;1661456;86;21052;-56
2022/08/23 05:08:05;;;;;;;9.08;3.70;;;;;;;31.11;34.48;100618.12;1665481;85;21104;-57
2022/08/23 05:10:35;;;;;;;9.85;4.20;;;;;;;31.20;34.66;100615.45;1655240;85;21842;-55
2022/08/23 05:13:02;;;;;;;8.83;4.08;;;;;;;31.42;34.77;100612.68;1655173;85;21275;-55
2022/08/23 05:15:29;;;;;;;10.10;4.55;;;;;;;31.71;34.24;100627.47;1655019;85;20933;-60
2022/08/23 05:17:58;;;;;;;7.40;3.90;;;;;;;31.88;33.80;100618.61;1655515;85;21475;-66
2022/08/23 05:20:25;;;;;;;5.97;3.70;;;;;;;32.02;33.78;100621.16;1655144;86;21044;-55
2022/08/23 05:22:53;;;;;;;7.40;3.83;;;;;;;32.15;33.66;100621.53;1655427;86;20972;-55
2022/08/23 05:25:20;;;;;;;6.45;3.95;;;;;;;32.29;33.53;100622.71;1655172;86;21170;-57
2022/08/23 05:27:48;;;;;;;5.30;3.92;;;;;;;32.30;33.06;100633.73;1666041;85;21503;-55
2022/08/23 05:30:15;;;;;;;9.98;4.00;;;;;;;32.22;33.34;100619.93;1654891;86;21008;-56
2022/08/23 05:32:43;;;;;;;8.83;4.50;;;;;;;32.23;33.54;100621.51;1655098;86;21104;-55
2022/08/23 05:35:11;;;;;;;7.20;4.25;;;;;;;32.43;33.57;100617.39;1655361;86;20897;-57
2022/08/23 05:37:41;;;;;;;10.93;3.87;;;;;;;32.60;32.88;100620.59;1655407;86;21567;-65
2022/08/23 05:40:09;;;;;;;9.20;3.80;;;;;;;32.60;33.04;100619.23;1654871;86;21068;-56
2022/08/23 05:42:38;;;;;;;4.67;3.77;;;;;;;32.65;32.97;100618.27;1655792;85;21076;-55
2022/08/23 05:45:08;;;;;;;7.28;4.35;;;;;;;32.77;32.88;100625.16;1655285;85;21004;-57
2022/08/23 05:47:38;;;;;;;6.85;4.00;;;;;;;32.88;32.95;100629.08;1655203;86;21062;-56
2022/08/23 05:50:08;;;;;;;7.37;3.42;;;;;;;33.03;32.96;100630.45;1655692;85;21245;-62
2022/08/23 05:52:37;;;;;;;5.90;3.95;;;;;;;33.16;32.66;100629.44;1655683;86;21135;-55
2022/08/23 05:55:07;;;;;;;8.05;3.35;;;;;;;33.24;32.22;100640.53;1655586;86;21553;-62
2022/08/23 05:57:40;;;;;;;8.35;3.12;;;;;;;33.24;32.04;100641.88;1655394;85;21504;-56
2022/08/23 06:00:14;;;;;;;9.60;3.75;;;;;;;33.17;32.59;100642.39;1654828;86;21061;-56
2022/08/23 06:02:48;;;;;;;8.08;3.22;;;;;;;33.84;31.44;100631.25;1655483;86;21243;-57
2022/08/23 06:05:18;;;;;;;6.70;3.30;;;;;;;34.28;30.87;100636.50;1654971;85;21057;-58
2022/08/23 06:07:46;;;;;;;7.90;3.77;;;;;;;34.37;30.60;100627.75;1665788;85;21818;-58
2022/08/23 06:10:13;;;;;;;6.60;3.95;;;;;;;34.46;30.46;100634.98;1664433;85;21170;-56
2022/08/23 06:12:44;;;;;;;6.95;4.10;;;;;;;34.56;30.69;100634.02;1664189;85;21571;-65
2022/08/23 06:15:12;;;;;;;6.03;3.83;;;;;;;34.67;30.03;100621.41;1663782;86;21290;-57
2022/08/23 06:17:41;;;;;;;5.97;3.27;;;;;;;34.56;30.35;100630.53;1664247;86;21317;-55
2022/08/23 06:20:10;;;;;;;6.85;3.27;;;;;;;34.66;30.08;100634.70;1663850;86;21038;-57
2022/08/23 06:22:39;;;;;;;6.87;3.58;;;;;;;34.06;30.94;100629.58;1661654;86;21460;-56
2022/08/23 06:25:08;;;;;;;5.95;3.12;;;;;;;34.08;30.85;100635.42;1663981;85;21047;-55
2022/08/23 06:27:46;;;;;;;9.73;4.00;;;;;;;34.25;30.54;100617.47;1663750;86;21187;-60
2022/08/23 06:30:13;;;;;;;6.42;3.22;;;;;;;34.36;30.67;100612.64;1664020;85;20916;-56
2022/08/23 06:32:44;;;;;;;;;;;;;;;34.54;30.30;100618.67;1666840;86;21063;-64
2022/08/23 06:35:29;;;;;;;6.72;2.70;;;;;;;34.72;29.76;100613.06;1664518;85;20157;-62
2022/08/23 06:38:06;;;;;;;6.42;3.22;;;;;;;34.70;29.89;100606.64;1663854;86;21117;-56
2022/08/23 06:40:50;;;;;;;6.42;3.58;;;;;;;34.76;30.01;100613.96;1664067;86;21362;-57
2022/08/23 06:43:27;;;;;;;8.55;3.08;;;;;;;34.98;29.53;100612.16;1663795;86;21015;-57
2022/08/23 06:46:15;;;;;;;5.05;3.17;;;;;;;35.25;29.18;100608.55;1635124;86;21083;-62
2022/08/23 06:48:43;;;;;;;5.78;3.00;;;;;;;35.32;28.74;100616.34;1664815;86;21051;-55
2022/08/23 06:51:25;;;;;;;6.92;3.00;;;;;;;35.43;28.91;100613.16;1664303;86;21086;-56
2022/08/23 06:53:57;;;;;;;7.67;3.35;;;;;;;35.52;28.25;100613.27;1664505;86;21485;-56
2022/08/23 06:56:36;;;;;;;4.90;3.00;;;;;;;35.60;28.25;100608.05;1662883;86;21015;-66
2022/08/23 06:59:09;;;;;;;6.80;2.60;;;;;;;35.54;28.13;100626.50;1662943;86;21454;-57
2022/08/23 07:01:56;;;;;;;4.97;2.65;;;;;;;35.46;28.11;100613.81;1663050;86;21541;-55
2022/08/23 07:04:28;;;;;;;4.67;3.15;;;;;;;35.45;27.65;100621.16;1664655;86;21082;-58
2022/08/23 07:07:09;;;;;;;7.03;2.87;;;;;;;35.27;28.20;100603.57;1663997;85;21294;-56
2022/08/23 07:09:37;;;;;;;4.80;3.17;;;;;;;35.16;28.06;100605.98;1665168;86;21510;-56
2022/08/23 07:12:05;;;;;;;6.65;3.37;;;;;;;35.06;28.47;100596.38;1665205;86;21518;-56
2022/08/23 07:14:33;;;;;;;7.15;3.30;;;;;;;35.10;28.77;100596.48;1664147;86;21475;-56
2022/08/23 07:17:01;;;;;;;5.45;3.35;;;;;;;35.23;28.29;100612.16;1665107;86;21535;-56
2022/08/23 07:19:31;;;;;;;7.75;3.67;;;;;;;35.18;27.99;100602.34;1665321;86;21333;-56
2022/08/23 07:21:59;;;;;;;5.08;3.67;;;;;;;35.03;28.34;100605.19;1665173;85;21019;-56
2022/08/23 07:24:26;;;;;;;4.40;2.90;;;;;;;35.07;28.72;100603.37;1664221;85;21021;-62
2022/08/23 07:26:54;;;;;;;4.00;2.83;;;;;;;35.23;28.18;100592.65;1664633;86;22047;-56
2022/08/23 07:29:22;;;;;;;5.08;2.67;;;;;;;35.24;28.18;100621.32;1665142;86;21032;-56
2022/08/23 07:31:54;;;;;;;5.22;3.45;;;;;;;35.22;28.09;100595.11;1664937;86;22101;-56
2022/08/23 07:34:22;;;;;;;4.78;3.30;;;;;;;35.23;28.29;100613.52;1664744;86;20916;-58
2022/08/23 07:36:51;;;;;;;5.47;2.75;;;;;;;35.17;28.14;100605.41;1665420;86;21490;-56
2022/08/23 07:39:20;;;;;;;3.80;2.85;;;;;;;35.26;28.42;100598.72;1665158;86;21055;-55
2022/08/23 07:41:47;;;;;;;5.20;3.12;;;;;;;35.40;28.05;100602.43;1665115;86;21540;-55
2022/08/23 07:44:16;;;;;;;5.42;3.42;;;;;;;35.51;27.75;100599.49;1664705;85;21167;-57
2022/08/23 07:46:45;;;;;;;4.55;2.70;;;;;;;35.53;27.53;100597.78;1664210;86;21663;-63
2022/08/23 07:49:13;;;;;;;7.25;5.10;;;;;;;35.71;27.39;100597.73;1664341;85;21460;-56
2022/08/23 07:51:45;;;;;;;5.90;3.62;;;;;;;35.72;27.34;100598.52;1664546;85;21447;-57
2022/08/23 07:54:12;;;;;;;5.70;3.35;;;;;;;35.85;27.49;100606.05;1652461;86;21427;-60
2022/08/23 07:56:42;;;;;;;7.95;3.42;;;;;;;35.79;27.61;100600.07;1664202;85;21383;-58
2022/08/23 07:59:11;;;;;;;6.53;3.17;;;;;;;35.68;26.91;100603.84;1665486;85;21058;-57
2022/08/23 08:01:42;;;;;;;5.33;3.08;;;;;;;35.48;27.40;100583.09;1665096;85;20988;-55
2022/08/23 08:04:10;;;;;;;3.83;2.80;;;;;;;35.53;27.27;100587.72;1664001;86;21017;-55
2022/08/23 08:06:45;;;;;;;5.33;3.27;;;;;;;35.65;27.24;100602.38;1664512;85;20995;-58
2022/08/23 08:09:13;;;;;;;6.55;3.55;;;;;;;35.73;27.06;100586.55;1666073;84;21146;-56
2022/08/23 08:11:44;;;;;;;4.25;2.90;;;;;;;35.74;27.40;100578.63;1665852;86;21027;-59
2022/08/23 08:14:12;;;;;;;8.38;3.40;;;;;;;35.84;27.11;100579.50;1666462;85;21154;-56
2022/08/23 08:16:44;;;;;;;6.33;3.30;;;;;;;36.10;26.96;100585.03;1665777;85;20885;-55
2022/08/23 08:19:14;;;;;;;4.95;2.87;;;;;;;36.34;26.58;100599.05;1666281;85;20924;-56
2022/08/23 08:21:59;;;;;;;4.85;3.40;;;;;;;36.49;26.59;100598.30;1666073;86;21443;-64
2022/08/23 08:24:46;;;;;;;6.22;3.12;;;;;;;36.64;25.87;100585.86;1666306;85;21034;-56
2022/08/23 08:27:14;;;;;;;5.65;3.08;;;;;;;36.40;26.00;100578.63;1665464;86;20981;-60
2022/08/23 08:29:43;;;;;;;5.85;3.33;;;;;;;36.39;26.25;100590.64;1665848;86;21440;-57
2022/08/23 08:32:10;;;;;;;4.55;3.55;;;;;;;36.42;26.37;100586.66;1665662;85;21518;-56
2022/08/23 08:34:39;;;;;;;9.08;3.77;;;;;;;36.49;26.41;100590.94;1666098;86;21515;-55
2022/08/23 08:37:06;;;;;;;6.15;3.50;;;;;;;36.60;25.90;100577.62;1665850;85;21012;-64
2022/08/23 08:39:34;;;;;;;6.45;3.37;;;;;;;36.64;25.77;100577.71;1665813;86;21050;-55
2022/08/23 08:42:32;;;;;;;4.35;3.00;;;;;;;36.50;25.52;100580.28;1666009;85;20980;-58
2022/08/23 08:45:07;;;;;;;7.30;3.40;;;;;;;36.33;25.90;100594.73;1665755;85;20920;-55
2022/08/23 08:48:00;;;;;;;4.95;3.42;;;;;;;36.19;26.21;100585.67;1665526;85;21986;-65
2022/08/23 08:50:39;;;;;;;5.55;3.90;;;;;;;36.19;26.82;100583.75;1638239;85;21055;-56
2022/08/23 08:53:19;;;;;;;4.45;3.20;;;;;;;36.29;26.29;100563.42;1666092;85;21095;-56
2022/08/23 08:55:59;;;;;;;8.28;3.37;;;;;;;36.91;25.58;100570.57;1666100;85;21105;-57
2022/08/23 08:58:51;;;;;;;7.22;3.60;;;;;;;36.18;26.00;100565.08;1666150;85;21462;-55
2022/08/23 09:01:20;;;;;;;6.83;3.85;;;;;;;35.99;26.70;100584.75;1650448;86;21334;-57
2022/08/23 09:03:48;;;;;;;4.05;3.65;;;;;;;36.01;26.65;100572.42;1665704;86;21016;-55
2022/08/23 09:06:21;;;;;;;7.62;4.35;;;;;;;36.09;26.87;100562.54;1665977;86;21332;-55
2022/08/23 09:09:29;;;;;;;5.12;4.00;;;;;;;36.13;26.81;100578.92;1666062;86;21052;-55
2022/08/23 09:12:27;;;;;;;6.95;4.15;;;;;;;36.13;26.59;100568.84;1665995;86;21027;-56
2022/08/23 09:15:47;;;;;;;4.90;3.20;;;;;;;36.17;26.28;100562.16;1665349;85;21281;-55
2022/08/23 09:18:15;;;;;;;11.00;3.75;;;;;;;35.92;26.28;100581.27;1666113;85;21048;-55
2022/08/23 09:20:46;;;;;;;8.10;4.55;;;;;;;35.79;26.71;100560.74;1666310;85;21541;-55
2022/08/23 09:23:35;;;;;;;8.65;3.77;;;;;;;35.90;26.29;100574.59;1665666;85;21082;-56
2022/08/23 09:26:06;;;;;;;6.20;3.30;;;;;;;35.98;26.29;100564.97;1665797;85;20999;-55
2022/08/23 09:28:35;;;;;;;4.12;3.12;;;;;;;36.04;26.00;100555.45;1664605;85;21160;-56
2022/08/23 09:31:04;;;;;;;4.87;3.33;;;;;;;36.13;25.39;100579.70;1666388;85;22067;-55
2022/08/23 09:33:44;;;;;;;6.20;3.43;;;;;;;36.10;25.19;100566.82;1665951;85;20960;-55
2022/08/23 09:36:21;;;;;;;4.67;3.55;;;;;;;36.04;24.95;100573.66;1666338;85;21047;-64
2022/08/23 09:38:57;;;;;;;5.17;3.12;;;;;;;35.95;25.06;100564.30;1673461;85;21397;-57
2022/08/23 09:41:37;;;;;;;6.55;3.27;;;;;;;36.06;24.30;100564.02;1665483;85;22251;-55
2022/08/23 09:44:08;;;;;;;3.90;3.22;;;;;;;36.00;24.59;100576.28;1665764;86;21078;-56
2022/08/23 09:46:37;;;;;;;6.33;3.40;;;;;;;35.82;24.99;100562.77;1666546;86;22368;-55
2022/08/23 09:49:28;;;;;;;8.00;3.80;;;;;;;35.69;25.07;100571.53;1666257;86;21095;-56
2022/08/23 09:52:14;;;;;;;5.28;3.20;;;;;;;35.69;25.09;100557.19;1664166;85;21079;-56
2022/08/23 09:54:41;;;;;;;7.35;4.45;;;;;;;35.79;25.53;100547.18;1666185;86;21837;-55
2022/08/23 09:57:09;;;;;;;7.15;3.20;;;;;;;36.05;25.57;100554.30;1665906;86;20995;-55
2022/08/23 09:59:46;;;;;;;4.80;2.98;;;;;;;36.27;25.14;100575.22;1665595;85;21067;-60
2022/08/23 10:02:33;;;;;;;5.03;3.60;;;;;;;36.35;24.61;100546.32;1665773;85;21031;-55
2022/08/23 10:05:12;;;;;;;5.92;3.62;;;;;;;36.36;24.95;100559.53;1666600;85;21469;-65
2022/08/23 10:07:42;;;;;;;5.28;3.70;;;;;;;36.47;24.55;100566.05;1665742;86;21252;-65
2022/08/23 10:10:47;;;;;;;5.28;3.58;;;;;;;36.42;24.78;100558.14;1666053;86;21435;-56
2022/08/23 10:13:16;;;;;;;4.92;2.90;;;;;;;36.34;25.02;100550.97;1642029;86;20924;-56
2022/08/23 10:16:04;;;;;;;4.30;3.08;;;;;;;36.42;25.32;100550.00;1665756;84;21504;-55
2022/08/23 10:19:03;;;;;;;4.22;2.85;;;;;;;36.67;25.03;100547.11;1664800;86;21175;-55
2022/08/23 10:21:42;;;;;;;5.10;3.12;;;;;;;36.77;24.05;100550.65;1673455;85;21835;-55
2022/08/23 10:24:46;;;;;;;5.35;2.98;;;;;;;36.65;24.24;100546.69;1660108;85;21466;-55
2022/08/23 10:30:17;;;;;;;5.07;3.03;;;;;;;36.68;24.17;100556.85;1666674;85;21122;-55
2022/08/23 10:33:22;;;;;;;9.05;2.90;;;;;;;36.56;23.99;100544.16;1665799;86;21598;-55
2022/08/23 10:36:01;;;;;;;5.35;3.00;;;;;;;36.46;23.67;100551.45;1665771;85;20998;-58
2022/08/23 10:38:47;;;;;;;4.45;2.75;;;;;;;36.26;23.88;100539.14;1632682;85;21489;-55
2022/08/23 10:41:29;;;;;;;5.70;2.90;;;;;;;36.19;24.33;100539.53;1665909;86;21073;-61
2022/08/23 10:44:24;;;;;;;3.87;2.65;;;;;;;36.21;24.65;100533.17;1666216;86;21047;-55
2022/08/23 10:47:23;;;;;;;4.33;2.62;;;;;;;36.33;24.36;100529.58;1665088;85;21988;-60
2022/08/23 10:49:51;;;;;;;6.20;2.85;;;;;;;36.46;23.90;100530.54;1665471;85;21143;-65
2022/08/23 10:52:35;;;;;;;6.00;2.70;;;;;;;36.47;23.10;100542.97;1665939;85;21412;-55
2022/08/23 10:55:16;;;;;;;4.17;2.92;;;;;;;36.35;22.88;100531.39;1665888;85;21659;-55
2022/08/23 10:57:38;;;;;;;4.40;2.70;;;;;;;36.15;22.54;100544.09;1666016;85;21067;-58
2022/08/23 11:00:10;;;;;;;3.40;2.50;;;;;;;35.91;22.53;100545.75;1666274;85;21544;-59
2022/08/23 11:03:01;;;;;;;3.90;2.65;;;;;;;35.73;22.87;100537.73;1665721;85;22346;-56
2022/08/23 11:05:34;;;;;;;6.72;2.50;;;;;;;35.75;23.16;100544.94;1665954;86;21098;-56
2022/08/23 11:08:14;;;;;;;3.80;2.65;;;;;;;35.85;22.31;100528.17;1665993;85;21418;-59
2022/08/23 11:10:47;;;;;;;4.55;2.45;;;;;;;35.77;22.08;100545.40;1670598;85;21130;-56
2022/08/23 11:13:22;;;;;;;5.12;3.00;;;;;;;35.70;22.00;100533.00;1665852;86;21020;-56
2022/08/23 11:16:17;;;;;;;3.80;2.65;;;;;;;35.63;22.18;100545.00;1672435;85;21104;-61
2022/08/23 11:18:48;;;;;;;4.78;2.72;;;;;;;35.58;22.04;100541.98;1665709;85;21884;-56
2022/08/23 11:21:32;;;;;;;6.50;2.90;;;;;;;35.61;22.03;100533.70;1666253;85;21072;-65
2022/08/23 11:24:05;;;;;;;6.95;3.22;;;;;;;35.66;22.44;100547.03;1665777;86;20996;-57
2022/08/23 11:26:47;;;;;;;5.62;2.55;;;;;;;35.80;22.55;100532.47;1673504;85;21054;-56
2022/08/23 11:29:26;;;;;;;4.08;2.37;;;;;;;36.02;21.90;100533.29;1666023;86;21322;-56
2022/08/23 11:32:18;;;;;;;5.28;2.72;;;;;;;36.05;21.76;100516.31;1665826;85;21112;-57
2022/08/23 11:34:52;;;;;;;3.72;2.70;;;;;;;36.14;21.70;100516.16;1665636;86;21039;-57
2022/08/23 11:37:25;;;;;;;3.65;2.12;;;;;;;36.12;21.53;100522.50;1665945;86;20948;-55
2022/08/23 11:40:01;;;;;;;3.70;2.20;;;;;;;36.08;21.66;100524.91;1666373;85;20893;-56
2022/08/23 11:42:51;;;;;;;5.67;2.60;;;;;;;36.05;21.59;100517.67;1665287;85;23065;-60
2022/08/23 11:45:42;;;;;;;5.12;2.30;;;;;;;36.11;21.71;100509.30;1666212;85;20932;-55
2022/08/23 11:48:22;;;;;;;5.65;2.17;;;;;;;36.28;21.63;100510.28;1665984;86;20876;-58
2022/08/23 11:51:22;;;;;;;4.70;2.20;;;;;;;36.35;21.30;100516.46;1666842;86;21423;-56
2022/08/23 11:54:03;;;;;;;6.40;2.50;;;;;;;36.25;21.05;100515.83;1638681;85;21471;-55
2022/08/23 11:56:59;;;;;;;6.35;2.80;;;;;;;36.09;20.75;100487.13;1666014;85;21270;-55
2022/08/23 11:59:58;;;;;;;5.10;2.40;;;;;;;35.91;20.92;100513.77;1666455;85;21932;-56
2022/08/23 12:02:32;;;;;;;8.33;3.02;;;;;;;35.78;21.04;100526.62;1665886;86;21063;-56
2022/08/23 12:05:01;;;;;;;5.05;2.60;;;;;;;35.69;21.24;100521.94;1665925;85;21066;-55
2022/08/23 12:07:48;;;;;;;4.00;2.42;;;;;;;35.66;21.26;100508.48;1666059;85;20984;-56